Terminal Aerodrome Forecast
Issued by NWS

Home | Current Version | Previous Version | Text Only | Print | Product List | Glossary On
Versions: 1 2 3 4 5 6 7 8 9 10 11
322
FTUS46 KMTR 260528
TAFSNS
TAF
KSNS 260528Z 2606/2706 24007KT P6SM SCT100
     FM261000 VRB04KT P6SM SCT040
     FM261700 28009KT P6SM FEW015 SCT035
     FM262200 27013KT P6SM SCT020 SCT040
     FM270300 28008KT P6SM SCT015 SCT030=

USA.gov is the U.S. government's official web portal to all federal, state and local government web resources and services.